Time;durP1;ratioP1;P1;durP2;ratioP2;P2;SDS_P1;SDS_P2;PMS_P1;PMS_P2;Temp;Humidity;BMP_temperature;BMP_pressure;BME280_temperature;BME280_humidity;BME280_pressure;Samples;Min_cycle;Max_cycle;Signal;HPM_P1;HPM_P2
2023/11/09 00:01:55;;;;;;;2.97;2.78;;;;;;;;;;5046916;28;20124;-67
2023/11/09 00:04:23;;;;;;;2.50;2.40;;;;;;;;;;5046597;28;20048;-67
2023/11/09 00:06:52;;;;;;;2.65;2.50;;;;;;;;;;5042221;28;20431;-67
2023/11/09 00:09:22;;;;;;;2.83;2.72;;;;;;;;;;5045727;28;20053;-67
2023/11/09 00:11:50;;;;;;;2.65;2.55;;;;;;;;;;5047195;28;20056;-66
2023/11/09 00:14:19;;;;;;;2.25;2.15;;;;;;;;;;5046522;28;20072;-67
2023/11/09 00:16:47;;;;;;;2.42;2.33;;;;;;;;;;5046649;28;20516;-67
2023/11/09 00:19:15;;;;;;;2.58;2.47;;;;;;;;;;5045240;28;20391;-67
2023/11/09 00:21:44;;;;;;;2.63;2.53;;;;;;;;;;5044444;28;20045;-67
2023/11/09 00:24:13;;;;;;;2.60;2.50;;;;;;;;;;5045684;28;20045;-66
2023/11/09 00:26:45;;;;;;;2.75;2.65;;;;;;;;;;5050700;28;20053;-67
2023/11/09 00:29:13;;;;;;;2.55;2.45;;;;;;;;;;5048647;28;20064;-68
2023/11/09 00:31:42;;;;;;;2.40;2.30;;;;;;;;;;5050133;28;20103;-66
2023/11/09 00:34:11;;;;;;;2.58;2.40;;;;;;;;;;5050879;28;20143;-68
2023/11/09 00:36:39;;;;;;;2.20;2.10;;;;;;;;;;5050836;28;20083;-67
2023/11/09 00:39:11;;;;;;;2.30;2.20;;;;;;;;;;5047882;28;20073;-66
2023/11/09 00:41:40;;;;;;;2.30;2.20;;;;;;;;;;5044970;28;20048;-67
2023/11/09 00:44:11;;;;;;;2.30;2.20;;;;;;;;;;5051335;28;20478;-67
2023/11/09 00:46:40;;;;;;;2.20;2.10;;;;;;;;;;5044270;28;20052;-67
2023/11/09 00:49:08;;;;;;;2.63;2.53;;;;;;;;;;5050809;28;20053;-66
2023/11/09 00:51:37;;;;;;;2.30;2.20;;;;;;;;;;5049601;28;20501;-67
2023/11/09 00:54:05;;;;;;;2.35;2.25;;;;;;;;;;5046586;28;20119;-67
2023/11/09 00:56:33;;;;;;;2.53;2.40;;;;;;;;;;5049402;28;20045;-67
2023/11/09 00:59:03;;;;;;;2.35;2.25;;;;;;;;;;5044119;28;20057;-67
2023/11/09 01:01:32;;;;;;;2.47;2.38;;;;;;;;;;5050874;28;20048;-66
2023/11/09 01:04:01;;;;;;;2.13;2.03;;;;;;;;;;5050487;28;20086;-67
2023/11/09 01:06:30;;;;;;;2.75;2.65;;;;;;;;;;5050691;28;20049;-66
2023/11/09 01:08:58;;;;;;;2.63;2.53;;;;;;;;;;5039500;28;20094;-66
2023/11/09 01:11:27;;;;;;;2.53;2.33;;;;;;;;;;5050872;28;20041;-67
2023/11/09 01:13:57;;;;;;;3.08;2.92;;;;;;;;;;5048004;28;20110;-66
2023/11/09 01:16:25;;;;;;;2.55;2.45;;;;;;;;;;5046789;28;20041;-67
2023/11/09 01:18:55;;;;;;;2.55;2.45;;;;;;;;;;5049731;28;20253;-66
2023/11/09 01:21:24;;;;;;;2.35;2.25;;;;;;;;;;5049972;28;20119;-66
2023/11/09 01:23:52;;;;;;;3.53;2.35;;;;;;;;;;5050772;28;20045;-67
2023/11/09 01:26:21;;;;;;;2.60;2.50;;;;;;;;;;5050946;28;20530;-66
2023/11/09 01:28:49;;;;;;;2.40;2.30;;;;;;;;;;5049490;28;20089;-66
2023/11/09 01:31:17;;;;;;;2.60;2.50;;;;;;;;;;5044623;28;20077;-66
2023/11/09 01:33:46;;;;;;;2.20;2.10;;;;;;;;;;5035949;28;20036;-67
2023/11/09 01:36:16;;;;;;;2.78;2.50;;;;;;;;;;5038651;28;20060;-66
2023/11/09 01:38:44;;;;;;;2.40;2.30;;;;;;;;;;5045431;28;20121;-66
2023/11/09 01:41:13;;;;;;;2.15;2.05;;;;;;;;;;5049494;28;20064;-67
2023/11/09 01:43:42;;;;;;;2.13;2.03;;;;;;;;;;5050724;28;20118;-67
2023/11/09 01:46:11;;;;;;;2.30;2.20;;;;;;;;;;5048838;28;20490;-67
2023/11/09 01:48:39;;;;;;;2.30;2.20;;;;;;;;;;5043407;28;20067;-66
2023/11/09 01:51:08;;;;;;;3.25;2.72;;;;;;;;;;5049784;28;20041;-66
2023/11/09 01:53:37;;;;;;;2.55;2.45;;;;;;;;;;5044258;28;20494;-67
2023/11/09 01:56:06;;;;;;;2.30;2.20;;;;;;;;;;5039471;28;20045;-67
2023/11/09 01:58:35;;;;;;;2.80;2.70;;;;;;;;;;5049102;28;20057;-66
2023/11/09 02:01:04;;;;;;;3.90;2.88;;;;;;;;;;5048610;28;20105;-67
2023/11/09 02:03:34;;;;;;;2.40;2.30;;;;;;;;;;5049165;28;20053;-66
2023/11/09 02:06:03;;;;;;;2.28;2.17;;;;;;;;;;5047715;28;20241;-66
2023/11/09 02:08:31;;;;;;;2.92;2.15;;;;;;;;;;5048294;28;20071;-67
2023/11/09 02:11:01;;;;;;;2.55;2.45;;;;;;;;;;5036833;28;20509;-66
2023/11/09 02:13:29;;;;;;;2.38;2.28;;;;;;;;;;5049187;28;20045;-66
2023/11/09 02:15:58;;;;;;;2.42;2.33;;;;;;;;;;5043604;28;20044;-67
2023/11/09 02:18:27;;;;;;;2.50;2.40;;;;;;;;;;5048123;28;20045;-67
2023/11/09 02:20:55;;;;;;;2.58;2.47;;;;;;;;;;5045957;28;20060;-66
2023/11/09 02:23:24;;;;;;;2.80;2.60;;;;;;;;;;5046427;28;20076;-67
2023/11/09 02:25:54;;;;;;;2.85;2.17;;;;;;;;;;5046907;28;20045;-66
2023/11/09 02:28:23;;;;;;;2.30;2.20;;;;;;;;;;5043597;28;20092;-66
2023/11/09 02:30:51;;;;;;;2.40;2.30;;;;;;;;;;5042585;28;20498;-66
2023/11/09 02:33:19;;;;;;;2.30;2.20;;;;;;;;;;5043196;28;20060;-66
2023/11/09 02:35:48;;;;;;;2.20;2.10;;;;;;;;;;5048114;28;20086;-66
2023/11/09 02:38:16;;;;;;;2.50;2.40;;;;;;;;;;5047326;28;20055;-66
2023/11/09 02:40:45;;;;;;;2.70;2.60;;;;;;;;;;5040855;28;20492;-66
2023/11/09 02:43:15;;;;;;;2.35;2.25;;;;;;;;;;5039643;28;20522;-67
2023/11/09 02:45:45;;;;;;;2.40;2.30;;;;;;;;;;5044221;28;20060;-68
2023/11/09 02:48:13;;;;;;;2.47;2.38;;;;;;;;;;5044673;28;20106;-66
2023/11/09 02:50:41;;;;;;;2.42;2.33;;;;;;;;;;5048026;28;20152;-66
2023/11/09 02:53:10;;;;;;;2.17;2.08;;;;;;;;;;5047649;28;20080;-66
2023/11/09 02:55:39;;;;;;;2.58;2.47;;;;;;;;;;5035491;28;20103;-67
2023/11/09 02:58:07;;;;;;;2.40;2.30;;;;;;;;;;5047623;28;20099;-66
2023/11/09 03:00:37;;;;;;;2.20;2.10;;;;;;;;;;5038931;28;20052;-67
2023/11/09 03:03:05;;;;;;;2.42;2.33;;;;;;;;;;5047313;28;20072;-67
2023/11/09 03:05:34;;;;;;;2.65;2.50;;;;;;;;;;5045064;28;20041;-66
2023/11/09 03:08:02;;;;;;;2.25;2.15;;;;;;;;;;5046906;28;20496;-66
2023/11/09 03:10:30;;;;;;;2.58;2.47;;;;;;;;;;5046508;28;20171;-66
2023/11/09 03:13:00;;;;;;;2.30;2.20;;;;;;;;;;5047739;28;20048;-66
2023/11/09 03:15:28;;;;;;;2.10;2.00;;;;;;;;;;5047163;28;20044;-66
2023/11/09 03:17:58;;;;;;;2.28;2.17;;;;;;;;;;5048695;28;20044;-66
2023/11/09 03:20:27;;;;;;;2.35;2.25;;;;;;;;;;5047711;28;20041;-66
2023/11/09 03:22:55;;;;;;;2.45;2.35;;;;;;;;;;5042224;28;20076;-66
2023/11/09 03:25:23;;;;;;;2.35;2.25;;;;;;;;;;5046741;28;20497;-66
2023/11/09 03:27:52;;;;;;;2.22;2.13;;;;;;;;;;5047623;28;20402;-66
2023/11/09 03:30:20;;;;;;;2.38;2.28;;;;;;;;;;5044380;28;20057;-66
2023/11/09 03:32:49;;;;;;;2.53;2.33;;;;;;;;;;5047818;28;20514;-66
2023/11/09 03:35:19;;;;;;;2.33;2.22;;;;;;;;;;5045567;28;20513;-66
2023/11/09 03:37:47;;;;;;;2.40;2.30;;;;;;;;;;5046004;28;20049;-65
2023/11/09 03:40:15;;;;;;;2.35;2.25;;;;;;;;;;5040608;28;20079;-66
2023/11/09 03:42:44;;;;;;;2.30;2.20;;;;;;;;;;5044138;28;20042;-67
2023/11/09 03:45:13;;;;;;;2.22;2.13;;;;;;;;;;5042849;28;20048;-66
2023/11/09 03:47:42;;;;;;;2.60;2.50;;;;;;;;;;5036059;28;20111;-66
2023/11/09 03:50:12;;;;;;;2.30;2.20;;;;;;;;;;5047241;28;20119;-66
2023/11/09 03:52:42;;;;;;;2.38;2.28;;;;;;;;;;5046375;28;20525;-66
2023/11/09 03:55:11;;;;;;;2.50;2.40;;;;;;;;;;5045274;28;20056;-66
2023/11/09 03:57:40;;;;;;;4.85;2.63;;;;;;;;;;5044156;28;20045;-66
2023/11/09 04:00:11;;;;;;;2.13;2.03;;;;;;;;;;5048989;28;20037;-66
2023/11/09 04:02:40;;;;;;;2.70;2.60;;;;;;;;;;5053133;28;20045;-66
2023/11/09 04:05:09;;;;;;;2.40;2.30;;;;;;;;;;5051695;28;20044;-66
2023/11/09 04:07:40;;;;;;;2.38;2.28;;;;;;;;;;5049527;28;20056;-66
2023/11/09 04:10:12;;;;;;;2.50;2.40;;;;;;;;;;5054310;28;20065;-66
2023/11/09 04:12:40;;;;;;;2.40;2.30;;;;;;;;;;5050278;28;20041;-66
2023/11/09 04:15:10;;;;;;;2.78;2.67;;;;;;;;;;5052189;28;20139;-66
2023/11/09 04:17:39;;;;;;;2.30;2.20;;;;;;;;;;5053076;28;20053;-66
2023/11/09 04:20:08;;;;;;;2.67;2.58;;;;;;;;;;5038252;28;20053;-66
2023/11/09 04:22:36;;;;;;;2.50;2.40;;;;;;;;;;5043269;28;20051;-66
2023/11/09 04:25:06;;;;;;;2.33;2.22;;;;;;;;;;5054126;28;20118;-66
2023/11/09 04:27:36;;;;;;;2.58;2.47;;;;;;;;;;5051240;28;20047;-65
2023/11/09 04:30:09;;;;;;;2.75;2.65;;;;;;;;;;5053271;28;20148;-66
2023/11/09 04:32:39;;;;;;;3.05;2.92;;;;;;;;;;5053992;28;20135;-66
2023/11/09 04:35:08;;;;;;;2.60;2.50;;;;;;;;;;5053044;28;20045;-66
2023/11/09 04:37:38;;;;;;;2.42;2.33;;;;;;;;;;5051258;28;20524;-66
2023/11/09 04:40:14;;;;;;;2.53;2.42;;;;;;;;;;5048130;28;20498;-66
2023/11/09 04:42:44;;;;;;;2.90;2.70;;;;;;;;;;5051345;28;20049;-65
2023/11/09 04:45:13;;;;;;;2.42;2.33;;;;;;;;;;5053694;28;20456;-65
2023/11/09 04:47:45;;;;;;;2.78;2.67;;;;;;;;;;5051837;28;20037;-66
2023/11/09 04:50:15;;;;;;;2.67;2.58;;;;;;;;;;5052799;28;20048;-66
2023/11/09 04:52:51;;;;;;;2.55;2.45;;;;;;;;;;5053390;28;20072;-66
2023/11/09 04:55:31;;;;;;;2.53;2.42;;;;;;;;;;5043365;28;20511;-65
2023/11/09 05:09:18;;;;;;;2.83;2.73;;;;;;;;;;5006526;28;20045;-66
2023/11/09 05:11:46;;;;;;;2.55;2.45;;;;;;;;;;5048150;28;20307;-67
2023/11/09 05:14:16;;;;;;;2.35;2.25;;;;;;;;;;5046026;28;20049;-65
2023/11/09 05:16:45;;;;;;;2.90;2.70;;;;;;;;;;5047235;28;20068;-66
2023/11/09 05:19:14;;;;;;;2.28;2.17;;;;;;;;;;5046148;28;20056;-66
2023/11/09 05:21:42;;;;;;;2.47;2.38;;;;;;;;;;5047827;28;20052;-66
2023/11/09 05:24:11;;;;;;;2.83;2.72;;;;;;;;;;5043045;28;20093;-66
2023/11/09 05:26:39;;;;;;;2.90;2.80;;;;;;;;;;5048150;28;20053;-66
2023/11/09 05:29:09;;;;;;;2.47;2.30;;;;;;;;;;5045000;28;20499;-66
2023/11/09 05:31:42;;;;;;;2.78;2.58;;;;;;;;;;5046072;28;20048;-66
2023/11/09 05:34:11;;;;;;;3.17;2.97;;;;;;;;;;5050241;28;20141;-67
2023/11/09 05:36:39;;;;;;;2.58;2.47;;;;;;;;;;5044675;28;20052;-66
2023/11/09 05:39:10;;;;;;;2.60;2.50;;;;;;;;;;5041737;28;20041;-66
2023/11/09 05:41:39;;;;;;;2.50;2.33;;;;;;;;;;5045715;28;20049;-66
2023/11/09 05:44:08;;;;;;;2.67;2.47;;;;;;;;;;5050348;28;20055;-67
2023/11/09 05:46:37;;;;;;;2.40;2.30;;;;;;;;;;5045762;28;20110;-66
2023/11/09 05:49:07;;;;;;;2.80;2.70;;;;;;;;;;5047022;28;20088;-66
2023/11/09 05:51:39;;;;;;;2.63;2.53;;;;;;;;;;5048612;28;20429;-66
2023/11/09 05:54:08;;;;;;;2.55;2.45;;;;;;;;;;5043353;28;20049;-65
2023/11/09 05:56:37;;;;;;;2.58;2.47;;;;;;;;;;5048450;28;20128;-65
2023/11/09 05:59:05;;;;;;;2.97;2.88;;;;;;;;;;5049047;28;20048;-65
2023/11/09 06:01:35;;;;;;;2.40;2.30;;;;;;;;;;5048556;28;20506;-65
2023/11/09 06:04:04;;;;;;;2.60;2.50;;;;;;;;;;5046449;28;20557;-66
2023/11/09 06:06:34;;;;;;;2.75;2.63;;;;;;;;;;5048840;28;20051;-65
2023/11/09 06:09:06;;;;;;;5.80;2.80;;;;;;;;;;5046955;28;20048;-66
2023/11/09 06:11:35;;;;;;;2.60;2.40;;;;;;;;;;5046632;28;20045;-65
2023/11/09 06:14:04;;;;;;;2.85;2.70;;;;;;;;;;5040888;28;20049;-65
2023/11/09 06:16:34;;;;;;;2.90;2.80;;;;;;;;;;5048304;28;20052;-65
2023/11/09 06:19:02;;;;;;;2.90;2.80;;;;;;;;;;5046716;28;20051;-59
2023/11/09 06:21:32;;;;;;;2.42;2.33;;;;;;;;;;5044985;28;20440;-59
2023/11/09 06:24:02;;;;;;;2.95;2.85;;;;;;;;;;5044437;28;20116;-59
2023/11/09 06:26:30;;;;;;;2.80;2.60;;;;;;;;;;5048157;28;20041;-59
2023/11/09 06:28:59;;;;;;;3.05;2.85;;;;;;;;;;5047574;28;20047;-59
2023/11/09 06:31:28;;;;;;;2.55;2.45;;;;;;;;;;5045716;28;20049;-61
2023/11/09 06:33:56;;;;;;;2.60;2.50;;;;;;;;;;5046881;28;20462;-60
2023/11/09 06:36:27;;;;;;;2.55;2.40;;;;;;;;;;5046549;28;20041;-61
2023/11/09 06:38:55;;;;;;;2.63;2.45;;;;;;;;;;5044851;28;20037;-60
2023/11/09 06:41:27;;;;;;;2.33;2.22;;;;;;;;;;5049323;28;20083;-60
2023/11/09 06:43:56;;;;;;;2.35;2.25;;;;;;;;;;5049555;28;20232;-59
2023/11/09 06:46:26;;;;;;;2.85;2.72;;;;;;;;;;5042713;28;20049;-61
2023/11/09 06:48:55;;;;;;;2.35;2.25;;;;;;;;;;5041972;28;20577;-60
2023/11/09 06:51:23;;;;;;;2.50;2.40;;;;;;;;;;5037938;28;20151;-60
2023/11/09 06:53:53;;;;;;;3.33;2.80;;;;;;;;;;5046939;28;20044;-58
2023/11/09 06:56:22;;;;;;;2.53;2.42;;;;;;;;;;5045938;28;20099;-60
2023/11/09 06:58:53;;;;;;;2.83;2.72;;;;;;;;;;5045549;28;20060;-60
2023/11/09 07:01:22;;;;;;;2.80;2.70;;;;;;;;;;5037731;28;20049;-59
2023/11/09 07:03:51;;;;;;;2.88;2.70;;;;;;;;;;5048313;28;20458;-59
2023/11/09 07:06:20;;;;;;;2.97;2.78;;;;;;;;;;5043644;28;20422;-59
2023/11/09 07:08:49;;;;;;;2.25;2.15;;;;;;;;;;5034450;28;20502;-60
2023/11/09 07:11:17;;;;;;;2.53;2.42;;;;;;;;;;5031122;28;20049;-61
2023/11/09 07:13:46;;;;;;;2.95;2.75;;;;;;;;;;5045351;28;20095;-60
2023/11/09 07:16:16;;;;;;;2.72;2.63;;;;;;;;;;5043847;28;20406;-60
2023/11/09 07:18:45;;;;;;;2.78;2.58;;;;;;;;;;5045637;28;20073;-59
2023/11/09 07:21:14;;;;;;;2.60;2.45;;;;;;;;;;5036233;28;20052;-61
2023/11/09 07:23:45;;;;;;;2.80;2.70;;;;;;;;;;5043876;28;20493;-61
2023/11/09 07:26:13;;;;;;;3.10;2.58;;;;;;;;;;5047445;28;20049;-58
2023/11/09 07:28:42;;;;;;;2.78;2.60;;;;;;;;;;5039815;28;20053;-59
2023/11/09 07:31:11;;;;;;;2.40;2.30;;;;;;;;;;5046546;28;20567;-60
2023/11/09 07:33:44;;;;;;;2.58;2.47;;;;;;;;;;5039365;28;20048;-59
2023/11/09 07:36:12;;;;;;;4.65;2.70;;;;;;;;;;5037337;28;20124;-59
2023/11/09 07:38:41;;;;;;;2.28;2.17;;;;;;;;;;5046528;28;20052;-60
2023/11/09 07:41:09;;;;;;;3.00;2.80;;;;;;;;;;5045719;28;20418;-60
2023/11/09 07:43:38;;;;;;;2.40;2.30;;;;;;;;;;5035129;28;20056;-58
2023/11/09 07:46:07;;;;;;;2.58;2.47;;;;;;;;;;5042049;28;20513;-60
2023/11/09 07:48:36;;;;;;;2.53;2.40;;;;;;;;;;5043474;28;20055;-59
2023/11/09 07:51:07;;;;;;;3.38;2.85;;;;;;;;;;5040650;28;20087;-58
2023/11/09 07:53:35;;;;;;;4.07;2.47;;;;;;;;;;5046339;28;20053;-59
2023/11/09 07:56:04;;;;;;;2.70;2.50;;;;;;;;;;5047880;28;20048;-60
2023/11/09 07:58:32;;;;;;;2.58;2.47;;;;;;;;;;5046990;28;20053;-60
2023/11/09 08:01:01;;;;;;;2.83;2.72;;;;;;;;;;5045595;28;20402;-60
2023/11/09 08:03:29;;;;;;;2.60;2.50;;;;;;;;;;5044497;28;20056;-60
2023/11/09 08:05:59;;;;;;;2.75;2.55;;;;;;;;;;5045553;28;20131;-59
2023/11/09 08:08:30;;;;;;;3.00;2.80;;;;;;;;;;5043982;28;20430;-60
2023/11/09 08:10:59;;;;;;;2.47;2.38;;;;;;;;;;5041419;28;20072;-61
2023/11/09 08:13:28;;;;;;;2.95;2.45;;;;;;;;;;5038058;28;20060;-60
2023/11/09 08:15:59;;;;;;;2.40;2.30;;;;;;;;;;5036821;28;20053;-59
2023/11/09 08:18:28;;;;;;;2.47;2.38;;;;;;;;;;5047800;28;20045;-59
2023/11/09 08:20:57;;;;;;;2.58;2.40;;;;;;;;;;5046224;28;20057;-59
2023/11/09 08:23:25;;;;;;;2.63;2.53;;;;;;;;;;5040316;28;20111;-60
2023/11/09 08:25:55;;;;;;;2.67;2.42;;;;;;;;;;5043785;28;20551;-60
2023/11/09 08:28:24;;;;;;;2.83;2.67;;;;;;;;;;5047659;28;20102;-59
2023/11/09 08:30:52;;;;;;;5.05;2.42;;;;;;;;;;5046792;28;20097;-59
2023/11/09 08:33:21;;;;;;;2.70;2.50;;;;;;;;;;5046940;28;20052;-61
2023/11/09 08:35:53;;;;;;;3.08;2.85;;;;;;;;;;5046126;28;20045;-60
2023/11/09 08:38:22;;;;;;;3.08;2.88;;;;;;;;;;5043441;28;20076;-61
2023/11/09 08:40:50;;;;;;;2.40;2.30;;;;;;;;;;5041380;28;20060;-59
2023/11/09 08:43:20;;;;;;;2.88;2.67;;;;;;;;;;5031168;28;20047;-60
2023/11/09 08:45:49;;;;;;;2.75;2.63;;;;;;;;;;5046405;28;20099;-59
2023/11/09 08:48:18;;;;;;;2.80;2.60;;;;;;;;;;5046829;28;20499;-60
2023/11/09 08:50:47;;;;;;;2.83;2.63;;;;;;;;;;5044895;28;20048;-60
2023/11/09 08:53:15;;;;;;;2.38;2.28;;;;;;;;;;5034253;28;20053;-59
2023/11/09 08:55:44;;;;;;;2.72;2.53;;;;;;;;;;5048614;28;20548;-62
2023/11/09 08:58:12;;;;;;;2.13;2.03;;;;;;;;;;5050639;28;20534;-61
2023/11/09 09:00:42;;;;;;;5.05;2.22;;;;;;;;;;5049941;28;20103;-62
2023/11/09 09:03:11;;;;;;;2.80;2.65;;;;;;;;;;5048939;28;20076;-60
2023/11/09 09:05:41;;;;;;;2.75;2.55;;;;;;;;;;5039171;28;20047;-60
2023/11/09 09:08:09;;;;;;;3.60;2.50;;;;;;;;;;5041560;28;20049;-61
2023/11/09 09:10:38;;;;;;;2.85;2.63;;;;;;;;;;5035196;28;20397;-60
2023/11/09 09:13:07;;;;;;;2.88;2.67;;;;;;;;;;5038008;28;20421;-61
2023/11/09 09:15:36;;;;;;;2.40;2.30;;;;;;;;;;5050261;28;20465;-61
2023/11/09 09:18:09;;;;;;;3.15;2.95;;;;;;;;;;5050188;28;20494;-60
2023/11/09 09:20:39;;;;;;;2.55;2.38;;;;;;;;;;5051126;28;20084;-59
2023/11/09 09:23:09;;;;;;;3.08;2.60;;;;;;;;;;5049827;28;20049;-61
2023/11/09 09:25:38;;;;;;;2.85;2.60;;;;;;;;;;5042661;28;20134;-59
2023/11/09 09:28:09;;;;;;;2.58;2.47;;;;;;;;;;5037188;28;20045;-59
2023/11/09 09:30:38;;;;;;;2.72;2.33;;;;;;;;;;5050152;28;20056;-61
2023/11/09 09:33:08;;;;;;;2.40;2.30;;;;;;;;;;5050751;28;20083;-61
2023/11/09 09:35:37;;;;;;;3.53;2.53;;;;;;;;;;5044358;28;20056;-62
2023/11/09 09:38:15;;;;;;;3.00;2.75;;;;;;;;;;5031234;28;20054;-59
2023/11/09 09:40:47;;;;;;;4.03;2.80;;;;;;;;;;5050223;28;20084;-59
2023/11/09 09:43:22;;;;;;;2.80;2.60;;;;;;;;;;5050471;28;20056;-58
2023/11/09 09:45:56;;;;;;;2.38;2.28;;;;;;;;;;5043758;28;20486;-62
2023/11/09 09:48:28;;;;;;;2.83;2.50;;;;;;;;;;5048515;28;20140;-60
2023/11/09 09:50:58;;;;;;;2.60;2.40;;;;;;;;;;5046013;28;20491;-60
2023/11/09 09:53:27;;;;;;;2.92;2.72;;;;;;;;;;5044791;28;20459;-59
2023/11/09 09:55:56;;;;;;;3.97;3.40;;;;;;;;;;5045078;28;20048;-66
2023/11/09 09:58:25;;;;;;;3.35;2.80;;;;;;;;;;5036181;28;20604;-63
2023/11/09 10:00:54;;;;;;;3.17;2.30;;;;;;;;;;5048221;28;20037;-61
2023/11/09 10:03:23;;;;;;;2.70;2.50;;;;;;;;;;5050053;28;20057;-61
2023/11/09 10:05:54;;;;;;;3.50;2.10;;;;;;;;;;5048002;28;20049;-60
2023/11/09 10:08:23;;;;;;;2.20;2.10;;;;;;;;;;5046733;28;20045;-61
2023/11/09 10:10:55;;;;;;;2.55;2.42;;;;;;;;;;5048251;28;20052;-62
2023/11/09 10:13:27;;;;;;;2.70;2.20;;;;;;;;;;5037033;28;20495;-59
2023/11/09 10:15:56;;;;;;;2.42;2.22;;;;;;;;;;5046629;28;20167;-60
2023/11/09 10:18:28;;;;;;;2.30;2.10;;;;;;;;;;5041986;28;20379;-60
2023/11/09 10:20:59;;;;;;;2.22;2.13;;;;;;;;;;5047659;28;20049;-68
2023/11/09 10:23:27;;;;;;;2.03;1.90;;;;;;;;;;5050053;28;20056;-63
2023/11/09 10:25:57;;;;;;;3.28;2.03;;;;;;;;;;5044667;28;20044;-67
2023/11/09 10:28:32;;;;;;;2.15;2.00;;;;;;;;;;5038866;28;20041;-63
2023/11/09 10:31:01;;;;;;;2.10;2.00;;;;;;;;;;5046873;28;20048;-64
2023/11/09 10:33:32;;;;;;;1.90;1.80;;;;;;;;;;5035200;28;20132;-68
2023/11/09 10:36:04;;;;;;;2.10;2.00;;;;;;;;;;5046120;28;20056;-69
2023/11/09 10:38:33;;;;;;;2.00;1.90;;;;;;;;;;5038511;28;20049;-66
2023/11/09 10:41:04;;;;;;;2.00;1.90;;;;;;;;;;5034955;28;20053;-63
2023/11/09 10:43:55;;;;;;;2.05;1.95;;;;;;;;;;5039584;28;20419;-66
2023/11/09 10:46:23;;;;;;;1.95;1.85;;;;;;;;;;5037154;28;20052;-66
2023/11/09 10:48:52;;;;;;;1.90;1.80;;;;;;;;;;5048981;28;20118;-64
2023/11/09 10:51:24;;;;;;;1.73;1.73;;;;;;;;;;5045046;28;21031;-61
2023/11/09 10:53:54;;;;;;;1.90;1.80;;;;;;;;;;5042557;28;20137;-63
2023/11/09 10:56:26;;;;;;;2.08;1.98;;;;;;;;;;5043343;28;20127;-65
2023/11/09 10:58:56;;;;;;;2.00;1.90;;;;;;;;;;5039141;28;20060;-66
2023/11/09 11:01:29;;;;;;;2.22;2.13;;;;;;;;;;5045149;28;20493;-62
2023/11/09 11:03:59;;;;;;;1.92;1.83;;;;;;;;;;5048322;28;20049;-69
2023/11/09 11:06:32;;;;;;;2.60;1.90;;;;;;;;;;5048252;28;20284;-62
2023/11/09 11:09:07;;;;;;;2.00;1.90;;;;;;;;;;5036227;28;20442;-68
2023/11/09 11:11:38;;;;;;;1.70;1.60;;;;;;;;;;5031961;28;20634;-66
2023/11/09 11:14:09;;;;;;;1.88;1.77;;;;;;;;;;5039714;28;20048;-62
2023/11/09 11:16:46;;;;;;;1.83;1.80;;;;;;;;;;5040361;28;20106;-64
2023/11/09 11:19:23;;;;;;;1.90;1.80;;;;;;;;;;5030734;28;20049;-71
2023/11/09 11:22:04;;;;;;;1.83;1.73;;;;;;;;;;5033179;28;20052;-63
2023/11/09 11:24:47;;;;;;;2.45;1.90;;;;;;;;;;5047769;28;20049;-63
2023/11/09 11:27:19;;;;;;;1.83;1.67;;;;;;;;;;5043291;28;20100;-62
2023/11/09 11:29:49;;;;;;;1.75;1.65;;;;;;;;;;5047545;28;20122;-64
2023/11/09 11:32:22;;;;;;;2.22;1.85;;;;;;;;;;5043262;28;20172;-65
2023/11/09 11:34:54;;;;;;;2.08;1.90;;;;;;;;;;5048581;28;20379;-64
2023/11/09 11:37:26;;;;;;;1.95;1.85;;;;;;;;;;5045933;28;20103;-61
2023/11/09 11:39:55;;;;;;;2.10;2.00;;;;;;;;;;5036690;28;20073;-65
2023/11/09 11:42:25;;;;;;;1.67;1.60;;;;;;;;;;5035992;28;20506;-67
2023/11/09 11:44:59;;;;;;;1.58;1.50;;;;;;;;;;5040636;28;20128;-65
2023/11/09 11:47:29;;;;;;;1.90;1.80;;;;;;;;;;5044809;28;20147;-62
2023/11/09 11:50:01;;;;;;;1.85;1.75;;;;;;;;;;5043018;28;20060;-68
2023/11/09 11:52:32;;;;;;;1.60;1.60;;;;;;;;;;5046705;28;20520;-64
2023/11/09 11:55:03;;;;;;;1.80;1.70;;;;;;;;;;5047436;28;20473;-67
2023/11/09 11:57:34;;;;;;;1.70;1.60;;;;;;;;;;5040655;28;20461;-70
2023/11/09 12:00:08;;;;;;;1.80;1.70;;;;;;;;;;5042372;28;20414;-64
2023/11/09 12:02:38;;;;;;;1.80;1.70;;;;;;;;;;5042084;28;20057;-74
2023/11/09 12:05:09;;;;;;;5.50;2.47;;;;;;;;;;5041931;28;20525;-65
2023/11/09 12:07:40;;;;;;;1.90;1.80;;;;;;;;;;5044178;28;20140;-61
2023/11/09 12:10:16;;;;;;;1.40;1.40;;;;;;;;;;5042531;28;20516;-66
2023/11/09 12:12:54;;;;;;;1.52;1.50;;;;;;;;;;5042196;28;20049;-69
2023/11/09 12:15:28;;;;;;;1.67;1.60;;;;;;;;;;5045051;28;20505;-68
2023/11/09 12:17:56;;;;;;;1.90;1.80;;;;;;;;;;5033024;28;20044;-64
2023/11/09 12:20:25;;;;;;;1.70;1.60;;;;;;;;;;5047874;28;20096;-63
2023/11/09 12:22:55;;;;;;;1.60;1.60;;;;;;;;;;5050268;28;20052;-68
2023/11/09 12:25:28;;;;;;;1.65;1.60;;;;;;;;;;5049099;28;20146;-65
2023/11/09 12:27:57;;;;;;;1.52;1.52;;;;;;;;;;5051241;28;20037;-67
2023/11/09 12:30:25;;;;;;;1.70;1.60;;;;;;;;;;5051743;28;20106;-64
2023/11/09 12:32:54;;;;;;;1.67;1.58;;;;;;;;;;5051713;28;20441;-66
2023/11/09 12:35:22;;;;;;;1.80;1.70;;;;;;;;;;5043594;28;20063;-68
2023/11/09 12:38:01;;;;;;;2.00;1.90;;;;;;;;;;5046814;28;20081;-67
2023/11/09 12:40:31;;;;;;;2.28;1.75;;;;;;;;;;5037310;28;20448;-65
2023/11/09 12:43:00;;;;;;;2.05;1.95;;;;;;;;;;5048363;28;20061;-68
2023/11/09 12:45:29;;;;;;;1.80;1.70;;;;;;;;;;5050996;28;20551;-64
2023/11/09 12:47:57;;;;;;;1.98;1.88;;;;;;;;;;5050190;28;20052;-64
2023/11/09 12:50:33;;;;;;;1.60;1.60;;;;;;;;;;5037904;28;20107;-64
2023/11/09 12:53:03;;;;;;;1.77;1.67;;;;;;;;;;5046087;28;20053;-63
2023/11/09 12:55:32;;;;;;;2.65;1.70;;;;;;;;;;5047509;28;20056;-62
2023/11/09 12:58:01;;;;;;;1.60;1.60;;;;;;;;;;5048914;28;20336;-64
2023/11/09 13:00:29;;;;;;;1.52;1.50;;;;;;;;;;5046807;28;20146;-63
2023/11/09 13:03:02;;;;;;;1.70;1.60;;;;;;;;;;5043290;28;20034;-62
2023/11/09 13:05:33;;;;;;;1.80;1.70;;;;;;;;;;5046255;28;20051;-65
2023/11/09 13:08:08;;;;;;;1.90;1.77;;;;;;;;;;5048920;28;20064;-66
2023/11/09 13:10:40;;;;;;;1.80;1.70;;;;;;;;;;5048710;28;20095;-68
2023/11/09 13:13:21;;;;;;;1.80;1.70;;;;;;;;;;5051462;28;20505;-63
2023/11/09 13:15:50;;;;;;;1.60;1.60;;;;;;;;;;5048990;28;20525;-62
2023/11/09 13:18:26;;;;;;;1.70;1.60;;;;;;;;;;5047862;28;20048;-73
2023/11/09 13:20:55;;;;;;;1.80;1.70;;;;;;;;;;5044859;28;20099;-63
2023/11/09 13:23:32;;;;;;;1.85;1.75;;;;;;;;;;5048427;28;20049;-64
2023/11/09 13:26:05;;;;;;;1.70;1.60;;;;;;;;;;5041845;28;20045;-63
2023/11/09 13:28:34;;;;;;;1.60;1.50;;;;;;;;;;5046437;28;20048;-65
2023/11/09 13:31:06;;;;;;;1.60;1.60;;;;;;;;;;5045980;28;20052;-64
2023/11/09 13:33:35;;;;;;;3.15;1.90;;;;;;;;;;5041917;28;20056;-67
2023/11/09 13:36:09;;;;;;;2.00;1.90;;;;;;;;;;5049908;28;20057;-67
2023/11/09 13:38:51;;;;;;;1.70;1.60;;;;;;;;;;5039879;28;20049;-68
2023/11/09 13:41:21;;;;;;;1.50;1.50;;;;;;;;;;5048967;28;20057;-68
2023/11/09 13:44:05;;;;;;;1.50;1.50;;;;;;;;;;5042675;28;20049;-65
2023/11/09 13:46:39;;;;;;;1.60;1.60;;;;;;;;;;5032653;28;20049;-70
2023/11/09 13:49:18;;;;;;;1.90;1.80;;;;;;;;;;5048814;28;20565;-70
2023/11/09 13:52:02;;;;;;;1.88;1.77;;;;;;;;;;5039029;28;20470;-69
2023/11/09 13:54:46;;;;;;;1.70;1.60;;;;;;;;;;5047642;28;20055;-73
2023/11/09 13:57:18;;;;;;;1.90;1.80;;;;;;;;;;5045845;28;20148;-64
2023/11/09 13:59:54;;;;;;;1.85;1.70;;;;;;;;;;5031812;28;20088;-64
2023/11/09 14:02:27;;;;;;;1.63;1.55;;;;;;;;;;5041330;28;20053;-67
2023/11/09 14:05:01;;;;;;;1.90;1.80;;;;;;;;;;5043398;28;20037;-64
2023/11/09 14:07:35;;;;;;;1.73;1.63;;;;;;;;;;5044224;28;20045;-68
2023/11/09 14:10:08;;;;;;;1.77;1.75;;;;;;;;;;5043574;28;20068;-64
2023/11/09 14:12:49;;;;;;;1.83;1.73;;;;;;;;;;5043793;28;20383;-63
2023/11/09 14:15:25;;;;;;;1.83;1.73;;;;;;;;;;5046287;28;20045;-64
2023/11/09 14:17:54;;;;;;;1.63;1.60;;;;;;;;;;5046553;28;20055;-65
2023/11/09 14:20:41;;;;;;;1.88;1.70;;;;;;;;;;5048450;28;20506;-65
2023/11/09 14:23:10;;;;;;;1.52;1.52;;;;;;;;;;5048555;28;20284;-64
2023/11/09 14:25:42;;;;;;;1.80;1.70;;;;;;;;;;5046222;28;20049;-65
2023/11/09 14:28:11;;;;;;;1.60;1.60;;;;;;;;;;5043568;28;20059;-68
2023/11/09 14:30:45;;;;;;;1.80;1.70;;;;;;;;;;5037549;28;20506;-65
2023/11/09 14:33:18;;;;;;;1.75;1.65;;;;;;;;;;5046010;28;20110;-68
2023/11/09 14:35:47;;;;;;;1.60;1.50;;;;;;;;;;5039877;28;20056;-69
2023/11/09 14:38:18;;;;;;;1.88;1.77;;;;;;;;;;5044761;28;20230;-66
2023/11/09 14:40:50;;;;;;;1.80;1.70;;;;;;;;;;5044800;28;20063;-65
2023/11/09 14:43:19;;;;;;;2.10;2.00;;;;;;;;;;5043478;28;20040;-63
2023/11/09 14:45:48;;;;;;;1.80;1.70;;;;;;;;;;5047709;28;20138;-66
2023/11/09 14:48:22;;;;;;;2.03;1.92;;;;;;;;;;5041004;28;20077;-68
2023/11/09 14:50:53;;;;;;;2.15;2.05;;;;;;;;;;5032203;28;20413;-69
2023/11/09 14:53:23;;;;;;;2.10;2.00;;;;;;;;;;5048724;28;20045;-64
2023/11/09 14:56:06;;;;;;;2.10;2.00;;;;;;;;;;5047483;28;20484;-64
2023/11/09 14:58:35;;;;;;;2.10;2.00;;;;;;;;;;5048290;28;20053;-66
2023/11/09 15:01:04;;;;;;;1.80;1.70;;;;;;;;;;5038508;28;20138;-75
2023/11/09 15:03:33;;;;;;;2.00;1.90;;;;;;;;;;5044459;28;20045;-66
2023/11/09 15:06:09;;;;;;;2.05;1.95;;;;;;;;;;5041743;28;20371;-69
2023/11/09 15:08:39;;;;;;;2.00;1.90;;;;;;;;;;5043027;28;20053;-67
2023/11/09 15:11:13;;;;;;;1.80;1.70;;;;;;;;;;5047801;28;20135;-64
2023/11/09 15:13:44;;;;;;;2.00;1.90;;;;;;;;;;5035807;28;20589;-63